sensor_id;sensor_type;location;lat;lon;timestamp;noise_LAeq;noise_LA_min;noise_LA_max;noise_LA01;noise_LA95
70077;Laerm;57448;51.490;5.436;2023-05-20T00:01:06;39.57;35.13;46.22;;
70077;Laerm;57448;51.490;5.436;2023-05-20T00:03:07;39.36;35.38;46.92;;
70077;Laerm;57448;51.490;5.436;2023-05-20T00:05:09;39.23;35.05;48.90;;
70077;Laerm;57448;51.490;5.436;2023-05-20T00:07:10;39.78;34.83;48.15;;
70077;Laerm;57448;51.490;5.436;2023-05-20T00:09:11;39.70;35.26;45.57;;
70077;Laerm;57448;51.490;5.436;2023-05-20T00:11:13;40.06;35.73;46.64;;
70077;Laerm;57448;51.490;5.436;2023-05-20T00:13:14;40.01;35.89;52.29;;
70077;Laerm;57448;51.490;5.436;2023-05-20T00:15:15;40.56;36.07;46.99;;
70077;Laerm;57448;51.490;5.436;2023-05-20T00:17:18;38.21;34.38;47.15;;
70077;Laerm;57448;51.490;5.436;2023-05-20T00:19:19;37.35;33.10;44.46;;
70077;Laerm;57448;51.490;5.436;2023-05-20T00:21:20;38.87;35.08;46.04;;
70077;Laerm;57448;51.490;5.436;2023-05-20T00:23:22;37.53;34.36;44.76;;
70077;Laerm;57448;51.490;5.436;2023-05-20T00:25:23;38.24;34.71;43.05;;
70077;Laerm;57448;51.490;5.436;2023-05-20T00:27:24;38.44;34.98;47.12;;
70077;Laerm;57448;51.490;5.436;2023-05-20T00:29:26;39.83;35.29;48.72;;
70077;Laerm;57448;51.490;5.436;2023-05-20T00:31:27;39.32;35.43;46.75;;
70077;Laerm;57448;51.490;5.436;2023-05-20T00:33:30;40.23;35.81;46.78;;
70077;Laerm;57448;51.490;5.436;2023-05-20T00:35:31;38.54;34.70;47.06;;
70077;Laerm;57448;51.490;5.436;2023-05-20T00:37:33;38.42;34.01;43.32;;
70077;Laerm;57448;51.490;5.436;2023-05-20T00:39:34;39.22;34.57;50.19;;
70077;Laerm;57448;51.490;5.436;2023-05-20T00:41:35;41.16;35.46;57.09;;
70077;Laerm;57448;51.490;5.436;2023-05-20T00:43:37;39.09;35.26;45.70;;
70077;Laerm;57448;51.490;5.436;2023-05-20T00:45:38;38.72;34.88;43.86;;
70077;Laerm;57448;51.490;5.436;2023-05-20T00:47:40;39.41;35.23;47.45;;
70077;Laerm;57448;51.490;5.436;2023-05-20T00:49:43;38.46;34.89;47.76;;
70077;Laerm;57448;51.490;5.436;2023-05-20T00:51:45;38.85;34.79;45.71;;
70077;Laerm;57448;51.490;5.436;2023-05-20T00:53:46;40.04;35.74;45.94;;
70077;Laerm;57448;51.490;5.436;2023-05-20T00:55:48;39.92;35.26;51.20;;
70077;Laerm;57448;51.490;5.436;2023-05-20T00:57:50;38.41;34.48;46.33;;
70077;Laerm;57448;51.490;5.436;2023-05-20T00:59:52;40.41;36.11;46.29;;
70077;Laerm;57448;51.490;5.436;2023-05-20T01:01:53;39.71;35.05;50.39;;
70077;Laerm;57448;51.490;5.436;2023-05-20T01:03:55;39.76;35.50;47.16;;
70077;Laerm;57448;51.490;5.436;2023-05-20T01:05:58;39.14;34.96;46.46;;
70077;Laerm;57448;51.490;5.436;2023-05-20T01:08:00;38.66;34.90;44.77;;
70077;Laerm;57448;51.490;5.436;2023-05-20T01:10:01;39.60;35.40;46.91;;
70077;Laerm;57448;51.490;5.436;2023-05-20T01:12:03;38.77;34.82;47.08;;
70077;Laerm;57448;51.490;5.436;2023-05-20T01:14:06;38.26;34.44;45.34;;
70077;Laerm;57448;51.490;5.436;2023-05-20T01:16:08;38.88;34.42;45.30;;
70077;Laerm;57448;51.490;5.436;2023-05-20T01:18:10;37.99;34.09;46.63;;
70077;Laerm;57448;51.490;5.436;2023-05-20T01:20:17;38.38;33.90;46.93;;
70077;Laerm;57448;51.490;5.436;2023-05-20T01:22:23;39.58;35.06;47.52;;
70077;Laerm;57448;51.490;5.436;2023-05-20T01:24:25;38.35;34.07;45.82;;
70077;Laerm;57448;51.490;5.436;2023-05-20T01:26:26;39.82;34.73;50.63;;
70077;Laerm;57448;51.490;5.436;2023-05-20T01:28:27;40.78;35.70;49.40;;
70077;Laerm;57448;51.490;5.436;2023-05-20T01:30:29;41.49;34.54;54.11;;
70077;Laerm;57448;51.490;5.436;2023-05-20T01:32:33;39.13;34.99;45.92;;
70077;Laerm;57448;51.490;5.436;2023-05-20T01:34:37;38.83;34.78;47.58;;
70077;Laerm;57448;51.490;5.436;2023-05-20T01:36:39;40.97;35.61;52.61;;
70077;Laerm;57448;51.490;5.436;2023-05-20T01:38:41;39.46;34.69;46.95;;
70077;Laerm;57448;51.490;5.436;2023-05-20T01:40:43;38.47;34.10;47.18;;
70077;Laerm;57448;51.490;5.436;2023-05-20T01:42:45;38.43;34.63;47.41;;
70077;Laerm;57448;51.490;5.436;2023-05-20T01:44:51;39.72;34.32;49.34;;
70077;Laerm;57448;51.490;5.436;2023-05-20T01:46:53;41.15;36.18;50.29;;
70077;Laerm;57448;51.490;5.436;2023-05-20T01:48:54;38.58;34.39;44.57;;
70077;Laerm;57448;51.490;5.436;2023-05-20T01:50:55;38.27;35.32;43.75;;
70077;Laerm;57448;51.490;5.436;2023-05-20T01:52:57;39.30;34.34;48.05;;
70077;Laerm;57448;51.490;5.436;2023-05-20T01:54:59;38.77;35.38;47.80;;
70077;Laerm;57448;51.490;5.436;2023-05-20T01:57:01;39.98;34.78;48.77;;
70077;Laerm;57448;51.490;5.436;2023-05-20T01:59:02;40.17;35.33;48.67;;
70077;Laerm;57448;51.490;5.436;2023-05-20T02:01:03;39.78;35.36;47.62;;
70077;Laerm;57448;51.490;5.436;2023-05-20T02:03:05;38.73;34.89;44.74;;
70077;Laerm;57448;51.490;5.436;2023-05-20T02:05:06;38.18;34.96;55.33;;
70077;Laerm;57448;51.490;5.436;2023-05-20T02:07:08;38.48;34.34;44.02;;
70077;Laerm;57448;51.490;5.436;2023-05-20T02:09:09;40.58;35.64;48.35;;
70077;Laerm;57448;51.490;5.436;2023-05-20T02:11:12;41.27;36.40;49.23;;
70077;Laerm;57448;51.490;5.436;2023-05-20T02:13:13;40.01;34.83;45.82;;
70077;Laerm;57448;51.490;5.436;2023-05-20T02:15:14;38.85;34.97;44.42;;
70077;Laerm;57448;51.490;5.436;2023-05-20T02:17:16;39.90;35.89;45.32;;
70077;Laerm;57448;51.490;5.436;2023-05-20T02:19:17;39.52;36.19;47.08;;
70077;Laerm;57448;51.490;5.436;2023-05-20T02:21:22;40.08;34.81;49.44;;
70077;Laerm;57448;51.490;5.436;2023-05-20T02:23:23;39.98;36.45;53.07;;
70077;Laerm;57448;51.490;5.436;2023-05-20T02:25:25;39.50;34.99;45.66;;
70077;Laerm;57448;51.490;5.436;2023-05-20T02:27:27;39.22;35.75;44.41;;
70077;Laerm;57448;51.490;5.436;2023-05-20T02:29:29;39.86;35.69;49.11;;
70077;Laerm;57448;51.490;5.436;2023-05-20T02:31:30;40.51;35.75;51.16;;
70077;Laerm;57448;51.490;5.436;2023-05-20T02:33:31;43.29;36.46;56.12;;
70077;Laerm;57448;51.490;5.436;2023-05-20T02:35:33;49.21;37.30;61.81;;
70077;Laerm;57448;51.490;5.436;2023-05-20T02:37:34;51.63;38.01;64.85;;
70077;Laerm;57448;51.490;5.436;2023-05-20T02:39:37;51.99;37.02;64.43;;
70077;Laerm;57448;51.490;5.436;2023-05-20T02:41:39;52.33;38.28;64.96;;
70077;Laerm;57448;51.490;5.436;2023-05-20T02:43:41;52.66;35.59;65.77;;
70077;Laerm;57448;51.490;5.436;2023-05-20T02:45:44;53.48;38.46;65.78;;
70077;Laerm;57448;51.490;5.436;2023-05-20T02:47:45;55.20;39.57;71.28;;
70077;Laerm;57448;51.490;5.436;2023-05-20T02:49:46;58.76;39.58;73.09;;
70077;Laerm;57448;51.490;5.436;2023-05-20T02:51:47;58.88;39.78;72.68;;
70077;Laerm;57448;51.490;5.436;2023-05-20T02:53:49;55.12;38.34;73.76;;
70077;Laerm;57448;51.490;5.436;2023-05-20T02:55:50;54.49;39.42;70.26;;
70077;Laerm;57448;51.490;5.436;2023-05-20T02:57:51;59.69;38.54;73.53;;
70077;Laerm;57448;51.490;5.436;2023-05-20T02:59:54;55.79;40.47;70.00;;
70077;Laerm;57448;51.490;5.436;2023-05-20T03:01:56;55.49;39.45;65.32;;
70077;Laerm;57448;51.490;5.436;2023-05-20T03:03:57;56.98;40.05;71.47;;
70077;Laerm;57448;51.490;5.436;2023-05-20T03:05:58;58.73;41.03;70.78;;
70077;Laerm;57448;51.490;5.436;2023-05-20T03:08:00;58.09;41.64;69.41;;
70077;Laerm;57448;51.490;5.436;2023-05-20T03:10:01;60.75;41.29;73.44;;
70077;Laerm;57448;51.490;5.436;2023-05-20T03:12:04;61.80;40.65;73.86;;
70077;Laerm;57448;51.490;5.436;2023-05-20T03:14:05;62.31;40.07;74.32;;
70077;Laerm;57448;51.490;5.436;2023-05-20T03:16:08;61.99;40.04;73.84;;
70077;Laerm;57448;51.490;5.436;2023-05-20T03:18:09;59.69;41.70;72.36;;
70077;Laerm;57448;51.490;5.436;2023-05-20T03:20:11;57.82;41.22;72.98;;
70077;Laerm;57448;51.490;5.436;2023-05-20T03:22:14;53.67;40.97;67.95;;
70077;Laerm;57448;51.490;5.436;2023-05-20T03:24:15;52.73;41.25;67.09;;
70077;Laerm;57448;51.490;5.436;2023-05-20T03:26:17;52.15;41.19;67.06;;
70077;Laerm;57448;51.490;5.436;2023-05-20T03:28:18;55.01;41.58;68.72;;
70077;Laerm;57448;51.490;5.436;2023-05-20T03:30:19;55.73;40.32;67.87;;
70077;Laerm;57448;51.490;5.436;2023-05-20T03:32:22;54.61;39.11;67.55;;
70077;Laerm;57448;51.490;5.436;2023-05-20T03:34:24;52.85;39.86;67.11;;
70077;Laerm;57448;51.490;5.436;2023-05-20T03:36:27;50.73;41.28;65.42;;
70077;Laerm;57448;51.490;5.436;2023-05-20T03:38:28;50.40;40.31;64.63;;
70077;Laerm;57448;51.490;5.436;2023-05-20T03:40:30;49.92;39.78;62.98;;
70077;Laerm;57448;51.490;5.436;2023-05-20T03:42:31;52.86;39.30;64.10;;
70077;Laerm;57448;51.490;5.436;2023-05-20T03:44:32;52.60;39.38;69.20;;
70077;Laerm;57448;51.490;5.436;2023-05-20T03:46:34;45.46;39.56;54.02;;
70077;Laerm;57448;51.490;5.436;2023-05-20T03:48:36;45.92;38.40;61.62;;
70077;Laerm;57448;51.490;5.436;2023-05-20T03:50:38;48.83;39.38;65.27;;
70077;Laerm;57448;51.490;5.436;2023-05-20T03:52:39;49.21;38.99;63.50;;
70077;Laerm;57448;51.490;5.436;2023-05-20T03:54:40;52.25;40.66;61.18;;
70077;Laerm;57448;51.490;5.436;2023-05-20T03:56:42;48.87;39.19;61.54;;
70077;Laerm;57448;51.490;5.436;2023-05-20T03:58:45;47.77;38.56;59.27;;
70077;Laerm;57448;51.490;5.436;2023-05-20T04:00:47;45.77;38.82;58.78;;
70077;Laerm;57448;51.490;5.436;2023-05-20T04:02:49;44.39;38.11;54.27;;
70077;Laerm;57448;51.490;5.436;2023-05-20T04:04:51;45.59;37.90;58.12;;
70077;Laerm;57448;51.490;5.436;2023-05-20T04:06:57;46.25;38.82;59.49;;
70077;Laerm;57448;51.490;5.436;2023-05-20T04:08:59;48.40;40.45;66.92;;
70077;Laerm;57448;51.490;5.436;2023-05-20T04:11:00;45.41;40.08;62.27;;
70077;Laerm;57448;51.490;5.436;2023-05-20T04:13:02;47.37;39.76;57.03;;
70077;Laerm;57448;51.490;5.436;2023-05-20T04:15:04;45.35;39.49;55.79;;
70077;Laerm;57448;51.490;5.436;2023-05-20T04:17:05;46.18;38.56;61.14;;
70077;Laerm;57448;51.490;5.436;2023-05-20T04:19:07;45.16;39.71;53.27;;
70077;Laerm;57448;51.490;5.436;2023-05-20T04:21:09;46.70;39.90;56.20;;
70077;Laerm;57448;51.490;5.436;2023-05-20T04:23:11;45.61;39.43;55.53;;
70077;Laerm;57448;51.490;5.436;2023-05-20T04:25:12;46.19;40.78;56.48;;
70077;Laerm;57448;51.490;5.436;2023-05-20T04:27:13;53.28;40.20;72.26;;
70077;Laerm;57448;51.490;5.436;2023-05-20T04:29:15;57.64;40.79;75.34;;
70077;Laerm;57448;51.490;5.436;2023-05-20T04:31:17;56.12;40.69;76.08;;
70077;Laerm;57448;51.490;5.436;2023-05-20T04:33:19;53.89;41.59;71.63;;
70077;Laerm;57448;51.490;5.436;2023-05-20T04:35:21;49.76;40.47;63.29;;
70077;Laerm;57448;51.490;5.436;2023-05-20T04:37:26;49.63;40.41;67.11;;
70077;Laerm;57448;51.490;5.436;2023-05-20T04:39:27;54.63;41.82;78.99;;
70077;Laerm;57448;51.490;5.436;2023-05-20T04:41:29;50.18;42.62;70.43;;
70077;Laerm;57448;51.490;5.436;2023-05-20T04:43:30;49.79;40.33;64.66;;
70077;Laerm;57448;51.490;5.436;2023-05-20T04:45:32;57.16;40.14;79.11;;
70077;Laerm;57448;51.490;5.436;2023-05-20T04:47:35;54.83;41.62;70.77;;
70077;Laerm;57448;51.490;5.436;2023-05-20T04:49:38;49.41;40.14;64.09;;
70077;Laerm;57448;51.490;5.436;2023-05-20T04:51:39;49.21;40.22;61.59;;
70077;Laerm;57448;51.490;5.436;2023-05-20T04:53:44;50.72;41.37;63.49;;
70077;Laerm;57448;51.490;5.436;2023-05-20T04:55:45;49.60;40.40;64.48;;
70077;Laerm;57448;51.490;5.436;2023-05-20T04:57:46;49.27;39.85;64.16;;
70077;Laerm;57448;51.490;5.436;2023-05-20T04:59:48;51.21;39.99;64.43;;
70077;Laerm;57448;51.490;5.436;2023-05-20T05:01:49;52.54;38.02;65.11;;
70077;Laerm;57448;51.490;5.436;2023-05-20T05:03:50;62.32;43.64;74.38;;
70077;Laerm;57448;51.490;5.436;2023-05-20T05:05:54;63.58;40.74;76.02;;
70077;Laerm;57448;51.490;5.436;2023-05-20T05:07:55;55.90;40.15;73.48;;
70077;Laerm;57448;51.490;5.436;2023-05-20T05:09:58;62.62;41.81;77.93;;
70077;Laerm;57448;51.490;5.436;2023-05-20T05:12:00;54.75;40.06;68.56;;
70077;Laerm;57448;51.490;5.436;2023-05-20T05:14:01;51.23;39.79;67.33;;
70077;Laerm;57448;51.490;5.436;2023-05-20T05:16:03;50.36;39.70;67.79;;
70077;Laerm;57448;51.490;5.436;2023-05-20T05:18:04;49.69;41.06;64.57;;
70077;Laerm;57448;51.490;5.436;2023-05-20T05:20:06;53.18;39.91;66.21;;
70077;Laerm;57448;51.490;5.436;2023-05-20T05:22:08;52.62;40.46;65.66;;
70077;Laerm;57448;51.490;5.436;2023-05-20T05:24:09;64.49;39.51;77.54;;
70077;Laerm;57448;51.490;5.436;2023-05-20T05:26:12;52.89;40.25;67.52;;
70077;Laerm;57448;51.490;5.436;2023-05-20T05:28:13;50.99;38.75;67.28;;
70077;Laerm;57448;51.490;5.436;2023-05-20T05:30:15;64.20;41.14;78.29;;
70077;Laerm;57448;51.490;5.436;2023-05-20T05:32:16;45.39;39.45;55.78;;
70077;Laerm;57448;51.490;5.436;2023-05-20T05:34:17;59.33;40.49;75.93;;
70077;Laerm;57448;51.490;5.436;2023-05-20T05:36:19;58.37;39.69;77.22;;
70077;Laerm;57448;51.490;5.436;2023-05-20T05:38:20;54.64;39.18;71.19;;
70077;Laerm;57448;51.490;5.436;2023-05-20T05:40:21;65.81;40.93;78.76;;
70077;Laerm;57448;51.490;5.436;2023-05-20T05:42:24;54.88;40.08;72.40;;
70077;Laerm;57448;51.490;5.436;2023-05-20T05:44:25;64.74;42.16;79.95;;
70077;Laerm;57448;51.490;5.436;2023-05-20T05:46:27;57.23;39.41;74.89;;
70077;Laerm;57448;51.490;5.436;2023-05-20T05:48:28;58.25;39.11;75.38;;
70077;Laerm;57448;51.490;5.436;2023-05-20T05:50:29;57.89;38.66;75.14;;
70077;Laerm;57448;51.490;5.436;2023-05-20T05:52:30;62.79;39.89;76.38;;
70077;Laerm;57448;51.490;5.436;2023-05-20T05:54:32;56.05;39.43;73.58;;
70077;Laerm;57448;51.490;5.436;2023-05-20T05:56:33;48.11;38.85;58.31;;
70077;Laerm;57448;51.490;5.436;2023-05-20T05:58:36;47.29;38.85;67.85;;
70077;Laerm;57448;51.490;5.436;2023-05-20T06:00:37;44.49;39.06;61.97;;
70077;Laerm;57448;51.490;5.436;2023-05-20T06:02:39;45.08;38.36;57.36;;
70077;Laerm;57448;51.490;5.436;2023-05-20T06:04:40;44.41;37.71;61.03;;
70077;Laerm;57448;51.490;5.436;2023-05-20T06:06:41;46.72;38.92;59.27;;
70077;Laerm;57448;51.490;5.436;2023-05-20T06:08:42;64.29;39.18;78.48;;
70077;Laerm;57448;51.490;5.436;2023-05-20T06:10:45;48.63;38.90;60.43;;
70077;Laerm;57448;51.490;5.436;2023-05-20T06:12:47;49.15;38.90;64.52;;
70077;Laerm;57448;51.490;5.436;2023-05-20T06:14:49;50.36;39.86;72.35;;
70077;Laerm;57448;51.490;5.436;2023-05-20T06:16:51;47.75;39.51;56.73;;
70077;Laerm;57448;51.490;5.436;2023-05-20T06:18:52;50.63;39.70;63.78;;
70077;Laerm;57448;51.490;5.436;2023-05-20T06:20:56;47.45;39.56;58.27;;
70077;Laerm;57448;51.490;5.436;2023-05-20T06:22:57;48.98;39.23;60.77;;
70077;Laerm;57448;51.490;5.436;2023-05-20T06:24:59;50.45;38.91;67.78;;
70077;Laerm;57448;51.490;5.436;2023-05-20T06:27:01;48.38;38.16;60.14;;
70077;Laerm;57448;51.490;5.436;2023-05-20T06:29:03;51.35;38.29;67.20;;
70077;Laerm;57448;51.490;5.436;2023-05-20T06:31:05;50.53;39.46;67.89;;
70077;Laerm;57448;51.490;5.436;2023-05-20T06:33:06;59.01;38.88;77.50;;
70077;Laerm;57448;51.490;5.436;2023-05-20T06:35:08;56.49;38.80;72.76;;
70077;Laerm;57448;51.490;5.436;2023-05-20T06:37:10;57.66;38.57;74.96;;
70077;Laerm;57448;51.490;5.436;2023-05-20T06:39:11;55.84;39.16;74.39;;
70077;Laerm;57448;51.490;5.436;2023-05-20T06:41:13;56.33;38.55;74.72;;
70077;Laerm;57448;51.490;5.436;2023-05-20T06:43:14;51.76;38.91;75.00;;
70077;Laerm;57448;51.490;5.436;2023-05-20T06:45:15;62.00;38.14;79.16;;
70077;Laerm;57448;51.490;5.436;2023-05-20T06:47:19;62.77;40.62;78.42;;
70077;Laerm;57448;51.490;5.436;2023-05-20T06:49:20;57.89;40.11;77.02;;
70077;Laerm;57448;51.490;5.436;2023-05-20T06:51:23;62.67;40.13;77.33;;
70077;Laerm;57448;51.490;5.436;2023-05-20T06:53:24;56.80;39.17;74.53;;
70077;Laerm;57448;51.490;5.436;2023-05-20T06:55:25;64.35;42.33;77.43;;
70077;Laerm;57448;51.490;5.436;2023-05-20T06:57:26;59.01;40.80;76.00;;
70077;Laerm;57448;51.490;5.436;2023-05-20T06:59:28;58.80;40.17;76.22;;
70077;Laerm;57448;51.490;5.436;2023-05-20T07:01:29;57.48;41.05;75.12;;
70077;Laerm;57448;51.490;5.436;2023-05-20T07:03:32;63.49;41.29;79.18;;
70077;Laerm;57448;51.490;5.436;2023-05-20T07:05:33;58.40;40.89;74.89;;
70077;Laerm;57448;51.490;5.436;2023-05-20T07:07:35;58.30;40.74;74.47;;
70077;Laerm;57448;51.490;5.436;2023-05-20T07:09:36;55.69;39.78;74.00;;
70077;Laerm;57448;51.490;5.436;2023-05-20T07:11:37;55.53;39.19;73.03;;
70077;Laerm;57448;51.490;5.436;2023-05-20T07:13:38;55.23;39.79;71.01;;
70077;Laerm;57448;51.490;5.436;2023-05-20T07:15:40;52.29;40.11;70.03;;
70077;Laerm;57448;51.490;5.436;2023-05-20T07:17:41;50.75;41.56;65.02;;
70077;Laerm;57448;51.490;5.436;2023-05-20T07:19:44;49.81;41.79;61.19;;
70077;Laerm;57448;51.490;5.436;2023-05-20T07:21:45;50.26;41.38;64.48;;
70077;Laerm;57448;51.490;5.436;2023-05-20T07:23:46;62.30;41.72;75.85;;
70077;Laerm;57448;51.490;5.436;2023-05-20T07:25:47;52.63;40.77;67.68;;
70077;Laerm;57448;51.490;5.436;2023-05-20T07:27:49;50.44;41.14;67.22;;
70077;Laerm;57448;51.490;5.436;2023-05-20T07:29:50;48.78;39.92;65.29;;
70077;Laerm;57448;51.490;5.436;2023-05-20T07:31:52;50.31;40.84;64.15;;
70077;Laerm;57448;51.490;5.436;2023-05-20T07:33:53;62.79;42.49;79.42;;
70077;Laerm;57448;51.490;5.436;2023-05-20T07:35:56;49.32;40.44;67.72;;
70077;Laerm;57448;51.490;5.436;2023-05-20T07:37:57;48.95;41.39;61.37;;
70077;Laerm;57448;51.490;5.436;2023-05-20T07:39:58;48.49;41.63;62.60;;
70077;Laerm;57448;51.490;5.436;2023-05-20T07:42:00;49.24;40.76;60.70;;
70077;Laerm;57448;51.490;5.436;2023-05-20T07:44:01;53.98;43.03;70.20;;
70077;Laerm;57448;51.490;5.436;2023-05-20T07:46:03;51.52;43.23;65.58;;
70077;Laerm;57448;51.490;5.436;2023-05-20T07:48:04;49.27;41.83;60.14;;
70077;Laerm;57448;51.490;5.436;2023-05-20T07:50:07;49.88;42.19;65.26;;
70077;Laerm;57448;51.490;5.436;2023-05-20T07:52:10;51.45;41.90;74.12;;
70077;Laerm;57448;51.490;5.436;2023-05-20T07:54:11;56.76;41.72;73.58;;
70077;Laerm;57448;51.490;5.436;2023-05-20T07:56:14;58.33;41.85;75.74;;
70077;Laerm;57448;51.490;5.436;2023-05-20T07:58:16;63.26;44.13;80.64;;
70077;Laerm;57448;51.490;5.436;2023-05-20T08:00:17;52.49;43.24;73.61;;
70077;Laerm;57448;51.490;5.436;2023-05-20T08:02:19;48.35;42.87;63.99;;
70077;Laerm;57448;51.490;5.436;2023-05-20T08:04:21;52.08;43.22;74.12;;
70077;Laerm;57448;51.490;5.436;2023-05-20T08:06:22;58.58;43.90;75.21;;
70077;Laerm;57448;51.490;5.436;2023-05-20T08:08:25;57.83;42.97;75.31;;
70077;Laerm;57448;51.490;5.436;2023-05-20T08:10:28;57.64;41.20;74.01;;
70077;Laerm;57448;51.490;5.436;2023-05-20T08:12:29;59.16;43.05;76.04;;
70077;Laerm;57448;51.490;5.436;2023-05-20T08:14:30;58.77;43.85;75.97;;
70077;Laerm;57448;51.490;5.436;2023-05-20T08:16:32;56.87;43.52;76.16;;
70077;Laerm;57448;51.490;5.436;2023-05-20T08:18:33;64.02;45.63;79.82;;
70077;Laerm;57448;51.490;5.436;2023-05-20T08:20:35;54.98;43.18;73.66;;
70077;Laerm;57448;51.490;5.436;2023-05-20T08:22:36;47.46;41.93;65.50;;
70077;Laerm;57448;51.490;5.436;2023-05-20T08:24:39;46.74;41.34;59.78;;
70077;Laerm;57448;51.490;5.436;2023-05-20T08:26:40;49.46;44.22;65.48;;
70077;Laerm;57448;51.490;5.436;2023-05-20T08:28:42;56.63;44.38;74.34;;
70077;Laerm;57448;51.490;5.436;2023-05-20T08:30:43;53.31;41.37;72.29;;
70077;Laerm;57448;51.490;5.436;2023-05-20T08:32:45;57.08;43.91;70.73;;
70077;Laerm;57448;51.490;5.436;2023-05-20T08:34:47;49.76;41.68;73.21;;
70077;Laerm;57448;51.490;5.436;2023-05-20T08:36:49;61.95;41.82;79.20;;
70077;Laerm;57448;51.490;5.436;2023-05-20T08:38:50;55.82;40.89;75.11;;
70077;Laerm;57448;51.490;5.436;2023-05-20T08:40:53;56.58;40.92;74.00;;
70077;Laerm;57448;51.490;5.436;2023-05-20T08:42:55;53.58;41.69;69.84;;
70077;Laerm;57448;51.490;5.436;2023-05-20T08:44:57;54.83;41.41;70.65;;
70077;Laerm;57448;51.490;5.436;2023-05-20T08:47:00;50.96;42.17;67.92;;
70077;Laerm;57448;51.490;5.436;2023-05-20T08:49:02;46.32;41.46;56.07;;
70077;Laerm;57448;51.490;5.436;2023-05-20T08:51:04;63.02;41.46;78.92;;
70077;Laerm;57448;51.490;5.436;2023-05-20T08:53:07;64.49;43.60;82.16;;
70077;Laerm;57448;51.490;5.436;2023-05-20T08:55:10;58.56;43.71;75.16;;
70077;Laerm;57448;51.490;5.436;2023-05-20T08:57:15;58.20;45.06;73.27;;
70077;Laerm;57448;51.490;5.436;2023-05-20T08:59:16;50.90;42.74;69.28;;
70077;Laerm;57448;51.490;5.436;2023-05-20T09:01:20;47.69;42.15;59.96;;
70077;Laerm;57448;51.490;5.436;2023-05-20T09:03:23;48.14;41.97;61.07;;
70077;Laerm;57448;51.490;5.436;2023-05-20T09:05:24;49.82;41.68;62.57;;
70077;Laerm;57448;51.490;5.436;2023-05-20T09:07:26;49.65;43.78;61.68;;
70077;Laerm;57448;51.490;5.436;2023-05-20T09:09:28;49.38;42.51;63.59;;
70077;Laerm;57448;51.490;5.436;2023-05-20T09:11:29;58.74;42.59;75.68;;
70077;Laerm;57448;51.490;5.436;2023-05-20T09:13:32;48.59;41.84;62.63;;
70077;Laerm;57448;51.490;5.436;2023-05-20T09:15:33;49.42;43.18;62.19;;
70077;Laerm;57448;51.490;5.436;2023-05-20T09:17:35;62.82;42.35;77.43;;
70077;Laerm;57448;51.490;5.436;2023-05-20T09:19:37;47.92;43.04;57.95;;
70077;Laerm;57448;51.490;5.436;2023-05-20T09:21:39;49.45;43.51;64.06;;
70077;Laerm;57448;51.490;5.436;2023-05-20T09:23:45;53.60;41.90;74.90;;
70077;Laerm;57448;51.490;5.436;2023-05-20T09:25:48;49.85;41.49;64.98;;
70077;Laerm;57448;51.490;5.436;2023-05-20T09:27:49;55.19;41.71;76.56;;
70077;Laerm;57448;51.490;5.436;2023-05-20T09:29:52;57.73;41.88;74.95;;
70077;Laerm;57448;51.490;5.436;2023-05-20T09:31:54;57.74;42.62;74.52;;
70077;Laerm;57448;51.490;5.436;2023-05-20T09:33:55;51.18;41.13;73.23;;
70077;Laerm;57448;51.490;5.436;2023-05-20T09:36:03;49.61;40.95;64.98;;
70077;Laerm;57448;51.490;5.436;2023-05-20T09:38:06;52.24;43.26;65.60;;
70077;Laerm;57448;51.490;5.436;2023-05-20T09:40:08;55.19;42.70;74.81;;
70077;Laerm;57448;51.490;5.436;2023-05-20T09:42:14;60.01;42.93;76.00;;
70077;Laerm;57448;51.490;5.436;2023-05-20T09:44:18;57.46;42.20;76.12;;
70077;Laerm;57448;51.490;5.436;2023-05-20T09:46:21;57.62;42.51;75.46;;
70077;Laerm;57448;51.490;5.436;2023-05-20T09:48:22;56.46;43.24;71.92;;
70077;Laerm;57448;51.490;5.436;2023-05-20T09:50:25;56.40;42.83;72.49;;
70077;Laerm;57448;51.490;5.436;2023-05-20T09:52:26;58.66;41.60;74.55;;
70077;Laerm;57448;51.490;5.436;2023-05-20T09:54:28;63.09;43.47;77.71;;
70077;Laerm;57448;51.490;5.436;2023-05-20T09:56:29;53.43;44.22;70.40;;
70077;Laerm;57448;51.490;5.436;2023-05-20T09:58:32;56.05;42.96;71.19;;
70077;Laerm;57448;51.490;5.436;2023-05-20T10:00:35;63.48;43.40;78.25;;
70077;Laerm;57448;51.490;5.436;2023-05-20T10:02:39;58.03;42.62;74.58;;
70077;Laerm;57448;51.490;5.436;2023-05-20T10:04:43;56.14;43.62;74.04;;
70077;Laerm;57448;51.490;5.436;2023-05-20T10:06:57;57.36;44.04;73.59;;
70077;Laerm;57448;51.490;5.436;2023-05-20T10:09:04;57.17;43.05;74.37;;
70077;Laerm;57448;51.490;5.436;2023-05-20T10:11:11;56.76;43.62;73.00;;
70077;Laerm;57448;51.490;5.436;2023-05-20T10:13:22;52.95;42.26;72.25;;
70077;Laerm;57448;51.490;5.436;2023-05-20T10:15:27;48.17;41.10;60.52;;
70077;Laerm;57448;51.490;5.436;2023-05-20T10:17:38;48.70;42.01;69.06;;
70077;Laerm;57448;51.490;5.436;2023-05-20T10:19:41;49.71;42.58;64.04;;
70077;Laerm;57448;51.490;5.436;2023-05-20T10:21:43;48.63;41.85;61.19;;
70077;Laerm;57448;51.490;5.436;2023-05-20T10:23:45;47.35;39.96;61.27;;
70077;Laerm;57448;51.490;5.436;2023-05-20T10:25:49;47.54;39.80;64.44;;
70077;Laerm;57448;51.490;5.436;2023-05-20T10:27:50;46.81;40.20;57.66;;
70077;Laerm;57448;51.490;5.436;2023-05-20T10:29:52;47.99;41.96;64.84;;
70077;Laerm;57448;51.490;5.436;2023-05-20T10:31:54;61.84;42.70;76.24;;
70077;Laerm;57448;51.490;5.436;2023-05-20T10:33:55;49.20;42.96;61.11;;
70077;Laerm;57448;51.490;5.436;2023-05-20T10:36:00;49.79;42.56;60.88;;
70077;Laerm;57448;51.490;5.436;2023-05-20T10:38:07;56.22;41.73;73.99;;
70077;Laerm;57448;51.490;5.436;2023-05-20T10:40:10;58.24;44.23;75.74;;
70077;Laerm;57448;51.490;5.436;2023-05-20T10:42:11;57.26;41.94;73.80;;
70077;Laerm;57448;51.490;5.436;2023-05-20T10:44:13;55.93;41.21;73.44;;
70077;Laerm;57448;51.490;5.436;2023-05-20T10:46:16;48.37;42.00;64.97;;
70077;Laerm;57448;51.490;5.436;2023-05-20T10:48:24;47.14;41.34;62.37;;
70077;Laerm;57448;51.490;5.436;2023-05-20T10:50:26;48.92;42.79;62.85;;
70077;Laerm;57448;51.490;5.436;2023-05-20T10:52:31;62.32;44.40;79.80;;
70077;Laerm;57448;51.490;5.436;2023-05-20T10:54:34;47.75;41.57;58.41;;
70077;Laerm;57448;51.490;5.436;2023-05-20T10:56:35;48.06;42.27;67.53;;
70077;Laerm;57448;51.490;5.436;2023-05-20T10:58:37;48.76;42.60;63.82;;
70077;Laerm;57448;51.490;5.436;2023-05-20T11:00:39;47.78;41.42;66.98;;
70077;Laerm;57448;51.490;5.436;2023-05-20T11:02:41;51.42;42.24;65.59;;
70077;Laerm;57448;51.490;5.436;2023-05-20T11:04:42;46.97;41.95;58.04;;
70077;Laerm;57448;51.490;5.436;2023-05-20T11:06:50;47.12;40.08;58.44;;
70077;Laerm;57448;51.490;5.436;2023-05-20T11:08:54;47.46;41.41;58.56;;
70077;Laerm;57448;51.490;5.436;2023-05-20T11:10:55;50.85;41.89;67.58;;
70077;Laerm;57448;51.490;5.436;2023-05-20T11:12:57;45.51;39.66;59.43;;
70077;Laerm;57448;51.490;5.436;2023-05-20T11:14:59;46.38;40.47;61.13;;
70077;Laerm;57448;51.490;5.436;2023-05-20T11:17:01;47.17;42.35;63.00;;
70077;Laerm;57448;51.490;5.436;2023-05-20T11:19:03;47.12;42.15;58.58;;
70077;Laerm;57448;51.490;5.436;2023-05-20T11:21:07;48.17;43.68;59.90;;
70077;Laerm;57448;51.490;5.436;2023-05-20T11:23:10;47.26;41.49;58.64;;